Terminal Aerodrome Forecast
Issued by NWS

Home | Current Version | Previous Version | Text Only | Print | Product List | Glossary On
Versions: 1 2 3 4 5 6 7 8 9 10 11 12 13 14 15
274
FTAK31 PAJN 210520
TAFAJN
TAF
PAJN 210520Z 2106/2206 VRB03KT P6SM FEW070
     FM211500 08003KT P6SM BKN045
     FM212000 09006KT P6SM VCSH OVC040
     FM220200 13006KT P6SM SCT040 BKN070=

USA.gov is the U.S. government's official web portal to all federal, state and local government web resources and services.